sensor_id;sensor_type;location;lat;lon;timestamp;P1;durP1;ratioP1;P2;durP2;ratioP2
40286;SDS011;25998;46.604;13.610;2022-10-16T00:00:19;35.50;;;28.55;;
40286;SDS011;25998;46.604;13.610;2022-10-16T00:03:29;36.60;;;28.55;;
40286;SDS011;25998;46.604;13.610;2022-10-16T00:06:40;38.25;;;28.38;;
40286;SDS011;25998;46.604;13.610;2022-10-16T00:09:51;37.45;;;29.75;;
40286;SDS011;25998;46.604;13.610;2022-10-16T00:13:02;34.85;;;28.05;;
40286;SDS011;25998;46.604;13.610;2022-10-16T00:16:14;32.13;;;26.80;;
40286;SDS011;25998;46.604;13.610;2022-10-16T00:19:25;32.53;;;26.38;;
40286;SDS011;25998;46.604;13.610;2022-10-16T00:22:36;34.90;;;28.15;;
40286;SDS011;25998;46.604;13.610;2022-10-16T00:26:02;33.92;;;27.08;;
40286;SDS011;25998;46.604;13.610;2022-10-16T00:29:16;32.58;;;26.48;;
40286;SDS011;25998;46.604;13.610;2022-10-16T00:32:27;36.88;;;28.75;;
40286;SDS011;25998;46.604;13.610;2022-10-16T00:35:37;38.55;;;28.17;;
40286;SDS011;25998;46.604;13.610;2022-10-16T00:38:55;35.90;;;28.00;;
40286;SDS011;25998;46.604;13.610;2022-10-16T00:42:12;37.42;;;28.65;;
40286;SDS011;25998;46.604;13.610;2022-10-16T00:45:26;31.33;;;26.73;;
40286;SDS011;25998;46.604;13.610;2022-10-16T00:48:37;32.72;;;26.95;;
40286;SDS011;25998;46.604;13.610;2022-10-16T00:51:49;36.70;;;27.77;;
40286;SDS011;25998;46.604;13.610;2022-10-16T00:55:02;33.40;;;27.20;;
40286;SDS011;25998;46.604;13.610;2022-10-16T00:58:14;35.47;;;28.38;;
40286;SDS011;25998;46.604;13.610;2022-10-16T01:01:25;34.85;;;27.52;;
40286;SDS011;25998;46.604;13.610;2022-10-16T01:04:37;35.30;;;27.05;;
40286;SDS011;25998;46.604;13.610;2022-10-16T01:11:08;39.42;;;27.75;;
40286;SDS011;25998;46.604;13.610;2022-10-16T01:14:36;33.10;;;26.90;;
40286;SDS011;25998;46.604;13.610;2022-10-16T01:21:33;35.33;;;27.27;;
40286;SDS011;25998;46.604;13.610;2022-10-16T01:24:48;35.65;;;27.33;;
40286;SDS011;25998;46.604;13.610;2022-10-16T01:28:00;34.33;;;27.27;;
40286;SDS011;25998;46.604;13.610;2022-10-16T01:31:17;33.17;;;27.23;;
40286;SDS011;25998;46.604;13.610;2022-10-16T01:34:33;33.78;;;25.60;;
40286;SDS011;25998;46.604;13.610;2022-10-16T01:37:51;33.75;;;26.42;;
40286;SDS011;25998;46.604;13.610;2022-10-16T01:41:15;37.20;;;27.02;;
40286;SDS011;25998;46.604;13.610;2022-10-16T01:44:30;35.25;;;28.05;;
40286;SDS011;25998;46.604;13.610;2022-10-16T01:47:43;35.50;;;27.58;;
40286;SDS011;25998;46.604;13.610;2022-10-16T01:50:59;37.05;;;27.75;;
40286;SDS011;25998;46.604;13.610;2022-10-16T01:54:16;36.70;;;28.30;;
40286;SDS011;25998;46.604;13.610;2022-10-16T01:57:30;42.78;;;28.38;;
40286;SDS011;25998;46.604;13.610;2022-10-16T02:00:44;36.47;;;26.20;;
40286;SDS011;25998;46.604;13.610;2022-10-16T02:03:58;37.17;;;28.02;;
40286;SDS011;25998;46.604;13.610;2022-10-16T02:07:19;33.65;;;27.08;;
40286;SDS011;25998;46.604;13.610;2022-10-16T02:10:30;35.58;;;28.70;;
40286;SDS011;25998;46.604;13.610;2022-10-16T02:13:45;36.47;;;28.08;;
40286;SDS011;25998;46.604;13.610;2022-10-16T02:17:00;33.55;;;25.85;;
40286;SDS011;25998;46.604;13.610;2022-10-16T02:20:11;35.30;;;27.15;;
40286;SDS011;25998;46.604;13.610;2022-10-16T02:23:57;34.13;;;26.52;;
40286;SDS011;25998;46.604;13.610;2022-10-16T02:30:57;34.15;;;27.27;;
40286;SDS011;25998;46.604;13.610;2022-10-16T02:34:11;33.80;;;26.73;;
40286;SDS011;25998;46.604;13.610;2022-10-16T02:37:23;39.40;;;29.05;;
40286;SDS011;25998;46.604;13.610;2022-10-16T02:40:35;35.67;;;27.50;;
40286;SDS011;25998;46.604;13.610;2022-10-16T02:43:47;37.90;;;27.65;;
40286;SDS011;25998;46.604;13.610;2022-10-16T02:46:58;33.15;;;27.10;;
40286;SDS011;25998;46.604;13.610;2022-10-16T02:50:09;35.83;;;26.67;;
40286;SDS011;25998;46.604;13.610;2022-10-16T02:53:20;33.42;;;25.77;;
40286;SDS011;25998;46.604;13.610;2022-10-16T02:56:31;38.47;;;28.50;;
40286;SDS011;25998;46.604;13.610;2022-10-16T02:59:42;32.25;;;25.63;;
40286;SDS011;25998;46.604;13.610;2022-10-16T03:02:53;32.95;;;26.88;;
40286;SDS011;25998;46.604;13.610;2022-10-16T03:06:04;33.40;;;25.73;;
40286;SDS011;25998;46.604;13.610;2022-10-16T03:09:16;35.25;;;26.25;;
40286;SDS011;25998;46.604;13.610;2022-10-16T03:12:27;33.95;;;26.20;;
40286;SDS011;25998;46.604;13.610;2022-10-16T03:15:39;39.80;;;27.27;;
40286;SDS011;25998;46.604;13.610;2022-10-16T03:18:49;33.97;;;26.08;;
40286;SDS011;25998;46.604;13.610;2022-10-16T03:22:00;34.83;;;27.05;;
40286;SDS011;25998;46.604;13.610;2022-10-16T03:25:11;34.80;;;27.27;;
40286;SDS011;25998;46.604;13.610;2022-10-16T03:28:22;37.75;;;28.70;;
40286;SDS011;25998;46.604;13.610;2022-10-16T03:31:33;36.03;;;28.00;;
40286;SDS011;25998;46.604;13.610;2022-10-16T03:34:44;36.13;;;26.88;;
40286;SDS011;25998;46.604;13.610;2022-10-16T03:37:54;34.33;;;26.73;;
40286;SDS011;25998;46.604;13.610;2022-10-16T03:41:06;35.55;;;27.75;;
40286;SDS011;25998;46.604;13.610;2022-10-16T03:44:17;45.13;;;29.58;;
40286;SDS011;25998;46.604;13.610;2022-10-16T03:47:28;37.15;;;26.52;;
40286;SDS011;25998;46.604;13.610;2022-10-16T03:50:39;37.65;;;26.77;;
40286;SDS011;25998;46.604;13.610;2022-10-16T03:53:50;37.47;;;27.48;;
40286;SDS011;25998;46.604;13.610;2022-10-16T03:57:01;38.55;;;27.50;;
40286;SDS011;25998;46.604;13.610;2022-10-16T04:00:12;36.42;;;27.35;;
40286;SDS011;25998;46.604;13.610;2022-10-16T04:03:23;35.10;;;26.52;;
40286;SDS011;25998;46.604;13.610;2022-10-16T04:06:34;37.33;;;27.67;;
40286;SDS011;25998;46.604;13.610;2022-10-16T04:09:45;33.00;;;25.98;;
40286;SDS011;25998;46.604;13.610;2022-10-16T04:12:56;35.03;;;26.85;;
40286;SDS011;25998;46.604;13.610;2022-10-16T04:16:08;35.38;;;25.63;;
40286;SDS011;25998;46.604;13.610;2022-10-16T04:19:18;32.97;;;24.77;;
40286;SDS011;25998;46.604;13.610;2022-10-16T04:22:29;35.03;;;27.20;;
40286;SDS011;25998;46.604;13.610;2022-10-16T04:25:40;35.25;;;25.65;;
40286;SDS011;25998;46.604;13.610;2022-10-16T04:28:51;38.05;;;26.75;;
40286;SDS011;25998;46.604;13.610;2022-10-16T04:32:02;36.50;;;26.88;;
40286;SDS011;25998;46.604;13.610;2022-10-16T04:35:13;37.60;;;26.75;;
40286;SDS011;25998;46.604;13.610;2022-10-16T04:38:24;34.30;;;27.08;;
40286;SDS011;25998;46.604;13.610;2022-10-16T04:41:35;36.22;;;27.00;;
40286;SDS011;25998;46.604;13.610;2022-10-16T04:44:46;35.67;;;27.48;;
40286;SDS011;25998;46.604;13.610;2022-10-16T04:47:58;33.78;;;26.58;;
40286;SDS011;25998;46.604;13.610;2022-10-16T04:51:09;32.58;;;25.98;;
40286;SDS011;25998;46.604;13.610;2022-10-16T04:54:20;33.28;;;24.55;;
40286;SDS011;25998;46.604;13.610;2022-10-16T04:57:31;34.58;;;26.58;;
40286;SDS011;25998;46.604;13.610;2022-10-16T05:00:43;35.60;;;26.60;;
40286;SDS011;25998;46.604;13.610;2022-10-16T05:03:56;35.90;;;25.75;;
40286;SDS011;25998;46.604;13.610;2022-10-16T05:07:06;35.95;;;26.10;;
40286;SDS011;25998;46.604;13.610;2022-10-16T05:10:17;37.17;;;25.88;;
40286;SDS011;25998;46.604;13.610;2022-10-16T05:13:28;34.55;;;26.52;;
40286;SDS011;25998;46.604;13.610;2022-10-16T05:16:39;38.97;;;26.45;;
40286;SDS011;25998;46.604;13.610;2022-10-16T05:19:50;36.65;;;26.58;;
40286;SDS011;25998;46.604;13.610;2022-10-16T05:23:01;34.05;;;26.00;;
40286;SDS011;25998;46.604;13.610;2022-10-16T05:26:11;36.40;;;25.70;;
40286;SDS011;25998;46.604;13.610;2022-10-16T05:29:22;33.95;;;23.90;;
40286;SDS011;25998;46.604;13.610;2022-10-16T05:32:33;31.50;;;24.08;;
40286;SDS011;25998;46.604;13.610;2022-10-16T05:35:44;30.48;;;21.35;;
40286;SDS011;25998;46.604;13.610;2022-10-16T05:38:55;32.20;;;23.30;;
40286;SDS011;25998;46.604;13.610;2022-10-16T05:42:06;30.98;;;22.73;;
40286;SDS011;25998;46.604;13.610;2022-10-16T05:45:17;30.30;;;22.42;;
40286;SDS011;25998;46.604;13.610;2022-10-16T05:48:28;35.03;;;23.67;;
40286;SDS011;25998;46.604;13.610;2022-10-16T05:51:39;36.88;;;24.55;;
40286;SDS011;25998;46.604;13.610;2022-10-16T05:54:51;31.15;;;23.83;;
40286;SDS011;25998;46.604;13.610;2022-10-16T05:58:02;36.97;;;25.70;;
40286;SDS011;25998;46.604;13.610;2022-10-16T06:01:14;31.27;;;24.17;;
40286;SDS011;25998;46.604;13.610;2022-10-16T06:04:26;33.67;;;25.65;;
40286;SDS011;25998;46.604;13.610;2022-10-16T06:07:37;33.42;;;24.20;;
40286;SDS011;25998;46.604;13.610;2022-10-16T06:10:48;33.10;;;25.10;;
40286;SDS011;25998;46.604;13.610;2022-10-16T06:14:09;29.55;;;23.40;;
40286;SDS011;25998;46.604;13.610;2022-10-16T06:17:20;31.52;;;25.33;;
40286;SDS011;25998;46.604;13.610;2022-10-16T06:20:31;32.85;;;24.98;;
40286;SDS011;25998;46.604;13.610;2022-10-16T06:23:42;35.47;;;24.35;;
40286;SDS011;25998;46.604;13.610;2022-10-16T06:26:53;29.35;;;23.00;;
40286;SDS011;25998;46.604;13.610;2022-10-16T06:30:04;31.90;;;25.23;;
40286;SDS011;25998;46.604;13.610;2022-10-16T06:33:16;35.42;;;24.38;;
40286;SDS011;25998;46.604;13.610;2022-10-16T06:36:26;34.35;;;25.65;;
40286;SDS011;25998;46.604;13.610;2022-10-16T06:39:37;32.38;;;24.65;;
40286;SDS011;25998;46.604;13.610;2022-10-16T06:42:49;33.33;;;24.55;;
40286;SDS011;25998;46.604;13.610;2022-10-16T06:46:02;31.90;;;23.98;;
40286;SDS011;25998;46.604;13.610;2022-10-16T06:49:15;31.00;;;22.85;;
40286;SDS011;25998;46.604;13.610;2022-10-16T06:52:31;33.22;;;25.17;;
40286;SDS011;25998;46.604;13.610;2022-10-16T06:55:43;32.97;;;25.15;;
40286;SDS011;25998;46.604;13.610;2022-10-16T06:58:54;34.90;;;25.35;;
40286;SDS011;25998;46.604;13.610;2022-10-16T07:02:05;31.55;;;23.48;;
40286;SDS011;25998;46.604;13.610;2022-10-16T07:05:17;29.35;;;23.15;;
40286;SDS011;25998;46.604;13.610;2022-10-16T07:08:28;28.45;;;23.20;;
40286;SDS011;25998;46.604;13.610;2022-10-16T07:11:42;32.67;;;24.20;;
40286;SDS011;25998;46.604;13.610;2022-10-16T07:14:53;30.70;;;23.17;;
40286;SDS011;25998;46.604;13.610;2022-10-16T07:18:06;29.50;;;23.70;;
40286;SDS011;25998;46.604;13.610;2022-10-16T07:21:19;30.02;;;22.73;;
40286;SDS011;25998;46.604;13.610;2022-10-16T07:24:30;31.52;;;23.17;;
40286;SDS011;25998;46.604;13.610;2022-10-16T07:27:41;29.80;;;22.27;;
40286;SDS011;25998;46.604;13.610;2022-10-16T07:30:52;29.63;;;24.17;;
40286;SDS011;25998;46.604;13.610;2022-10-16T07:34:03;26.65;;;22.83;;
40286;SDS011;25998;46.604;13.610;2022-10-16T07:37:14;34.42;;;23.42;;
40286;SDS011;25998;46.604;13.610;2022-10-16T07:40:25;33.38;;;25.77;;
40286;SDS011;25998;46.604;13.610;2022-10-16T07:43:37;30.85;;;25.38;;
40286;SDS011;25998;46.604;13.610;2022-10-16T07:46:48;30.85;;;25.50;;
40286;SDS011;25998;46.604;13.610;2022-10-16T07:49:58;33.42;;;24.75;;
40286;SDS011;25998;46.604;13.610;2022-10-16T07:53:09;28.48;;;25.20;;
40286;SDS011;25998;46.604;13.610;2022-10-16T07:56:21;27.73;;;24.20;;
40286;SDS011;25998;46.604;13.610;2022-10-16T07:59:32;27.15;;;23.02;;
40286;SDS011;25998;46.604;13.610;2022-10-16T08:02:43;25.15;;;22.48;;
40286;SDS011;25998;46.604;13.610;2022-10-16T08:05:56;25.80;;;22.13;;
40286;SDS011;25998;46.604;13.610;2022-10-16T08:09:08;26.48;;;22.90;;
40286;SDS011;25998;46.604;13.610;2022-10-16T08:12:19;22.92;;;20.52;;
40286;SDS011;25998;46.604;13.610;2022-10-16T08:15:30;25.33;;;21.33;;
40286;SDS011;25998;46.604;13.610;2022-10-16T08:18:41;24.52;;;21.52;;
40286;SDS011;25998;46.604;13.610;2022-10-16T08:21:51;26.27;;;20.15;;
40286;SDS011;25998;46.604;13.610;2022-10-16T08:25:02;21.23;;;19.02;;
40286;SDS011;25998;46.604;13.610;2022-10-16T08:28:13;24.10;;;20.58;;
40286;SDS011;25998;46.604;13.610;2022-10-16T08:31:25;21.67;;;19.02;;
40286;SDS011;25998;46.604;13.610;2022-10-16T08:34:37;23.08;;;20.33;;
40286;SDS011;25998;46.604;13.610;2022-10-16T08:37:47;22.50;;;20.00;;
40286;SDS011;25998;46.604;13.610;2022-10-16T08:41:09;22.13;;;18.98;;
40286;SDS011;25998;46.604;13.610;2022-10-16T08:44:30;20.63;;;18.25;;
40286;SDS011;25998;46.604;13.610;2022-10-16T08:48:05;22.15;;;19.80;;
40286;SDS011;25998;46.604;13.610;2022-10-16T08:51:29;20.92;;;18.73;;
40286;SDS011;25998;46.604;13.610;2022-10-16T08:54:43;21.27;;;18.70;;
40286;SDS011;25998;46.604;13.610;2022-10-16T08:57:58;20.65;;;18.55;;
40286;SDS011;25998;46.604;13.610;2022-10-16T09:01:11;24.70;;;19.10;;
40286;SDS011;25998;46.604;13.610;2022-10-16T09:04:37;20.95;;;18.85;;
40286;SDS011;25998;46.604;13.610;2022-10-16T09:07:57;21.38;;;18.75;;
40286;SDS011;25998;46.604;13.610;2022-10-16T09:22:15;17.60;;;15.52;;
40286;SDS011;25998;46.604;13.610;2022-10-16T09:25:28;18.95;;;17.15;;
40286;SDS011;25998;46.604;13.610;2022-10-16T09:28:38;19.95;;;17.20;;
40286;SDS011;25998;46.604;13.610;2022-10-16T09:31:50;19.73;;;16.98;;
40286;SDS011;25998;46.604;13.610;2022-10-16T09:35:03;17.45;;;15.25;;
40286;SDS011;25998;46.604;13.610;2022-10-16T09:38:25;17.85;;;15.98;;
40286;SDS011;25998;46.604;13.610;2022-10-16T09:41:42;16.75;;;14.73;;
40286;SDS011;25998;46.604;13.610;2022-10-16T09:44:55;17.52;;;15.50;;
40286;SDS011;25998;46.604;13.610;2022-10-16T09:48:10;17.10;;;15.07;;
40286;SDS011;25998;46.604;13.610;2022-10-16T09:51:29;18.55;;;16.15;;
40286;SDS011;25998;46.604;13.610;2022-10-16T09:54:53;17.30;;;15.55;;
40286;SDS011;25998;46.604;13.610;2022-10-16T09:58:11;16.67;;;14.65;;
40286;SDS011;25998;46.604;13.610;2022-10-16T10:01:26;16.27;;;13.57;;
40286;SDS011;25998;46.604;13.610;2022-10-16T10:04:41;13.60;;;12.18;;
40286;SDS011;25998;46.604;13.610;2022-10-16T10:07:59;79.47;;;18.08;;
40286;SDS011;25998;46.604;13.610;2022-10-16T10:11:16;15.85;;;12.80;;
40286;SDS011;25998;46.604;13.610;2022-10-16T10:17:47;12.93;;;11.52;;
40286;SDS011;25998;46.604;13.610;2022-10-16T10:21:00;13.75;;;12.00;;
40286;SDS011;25998;46.604;13.610;2022-10-16T10:24:16;12.35;;;11.05;;
40286;SDS011;25998;46.604;13.610;2022-10-16T10:27:31;12.60;;;11.32;;
40286;SDS011;25998;46.604;13.610;2022-10-16T10:52:26;15.15;;;13.55;;
40286;SDS011;25998;46.604;13.610;2022-10-16T11:10:15;16.58;;;14.55;;
40286;SDS011;25998;46.604;13.610;2022-10-16T11:20:25;16.80;;;15.10;;
40286;SDS011;25998;46.604;13.610;2022-10-16T11:27:03;17.42;;;15.52;;
40286;SDS011;25998;46.604;13.610;2022-10-16T11:30:28;17.85;;;15.80;;
40286;SDS011;25998;46.604;13.610;2022-10-16T11:34:36;18.80;;;16.77;;
40286;SDS011;25998;46.604;13.610;2022-10-16T11:37:32;18.30;;;16.50;;
40286;SDS011;25998;46.604;13.610;2022-10-16T11:40:52;17.80;;;16.05;;
40286;SDS011;25998;46.604;13.610;2022-10-16T11:44:16;18.40;;;16.42;;
40286;SDS011;25998;46.604;13.610;2022-10-16T11:54:53;18.92;;;16.77;;
40286;SDS011;25998;46.604;13.610;2022-10-16T11:58:08;20.95;;;17.75;;
40286;SDS011;25998;46.604;13.610;2022-10-16T12:01:38;20.85;;;18.52;;
40286;SDS011;25998;46.604;13.610;2022-10-16T12:08:45;20.70;;;18.30;;
40286;SDS011;25998;46.604;13.610;2022-10-16T12:11:56;21.02;;;18.88;;
40286;SDS011;25998;46.604;13.610;2022-10-16T12:18:33;19.05;;;17.15;;
40286;SDS011;25998;46.604;13.610;2022-10-16T12:21:44;20.13;;;18.20;;
40286;SDS011;25998;46.604;13.610;2022-10-16T12:24:56;20.58;;;18.48;;
40286;SDS011;25998;46.604;13.610;2022-10-16T12:28:21;22.13;;;19.83;;
40286;SDS011;25998;46.604;13.610;2022-10-16T12:31:37;20.73;;;18.52;;
40286;SDS011;25998;46.604;13.610;2022-10-16T12:34:55;21.83;;;18.60;;
40286;SDS011;25998;46.604;13.610;2022-10-16T12:38:27;18.90;;;16.92;;
40286;SDS011;25998;46.604;13.610;2022-10-16T12:41:37;19.35;;;17.27;;
40286;SDS011;25998;46.604;13.610;2022-10-16T12:44:49;17.45;;;15.65;;
40286;SDS011;25998;46.604;13.610;2022-10-16T12:48:02;18.45;;;16.75;;
40286;SDS011;25998;46.604;13.610;2022-10-16T12:54:38;19.27;;;17.27;;
40286;SDS011;25998;46.604;13.610;2022-10-16T13:11:52;15.98;;;14.23;;
40286;SDS011;25998;46.604;13.610;2022-10-16T13:15:11;13.85;;;12.40;;
40286;SDS011;25998;46.604;13.610;2022-10-16T13:25:25;13.77;;;12.43;;
40286;SDS011;25998;46.604;13.610;2022-10-16T13:28:42;17.42;;;14.35;;
40286;SDS011;25998;46.604;13.610;2022-10-16T13:31:53;14.70;;;13.20;;
40286;SDS011;25998;46.604;13.610;2022-10-16T13:35:15;16.92;;;15.23;;
40286;SDS011;25998;46.604;13.610;2022-10-16T13:38:33;13.60;;;11.77;;
40286;SDS011;25998;46.604;13.610;2022-10-16T13:41:45;14.48;;;12.80;;
40286;SDS011;25998;46.604;13.610;2022-10-16T13:44:56;14.35;;;12.88;;
40286;SDS011;25998;46.604;13.610;2022-10-16T13:48:09;13.60;;;12.20;;
40286;SDS011;25998;46.604;13.610;2022-10-16T13:51:23;14.25;;;12.73;;
40286;SDS011;25998;46.604;13.610;2022-10-16T13:54:34;17.00;;;12.02;;
40286;SDS011;25998;46.604;13.610;2022-10-16T13:57:45;16.23;;;12.77;;
40286;SDS011;25998;46.604;13.610;2022-10-16T14:00:57;17.90;;;13.93;;
40286;SDS011;25998;46.604;13.610;2022-10-16T14:04:11;14.07;;;12.60;;
40286;SDS011;25998;46.604;13.610;2022-10-16T14:07:27;15.45;;;13.95;;
40286;SDS011;25998;46.604;13.610;2022-10-16T14:10:46;14.70;;;13.15;;
40286;SDS011;25998;46.604;13.610;2022-10-16T14:14:03;15.18;;;12.75;;
40286;SDS011;25998;46.604;13.610;2022-10-16T14:17:24;15.02;;;13.63;;
40286;SDS011;25998;46.604;13.610;2022-10-16T14:20:37;15.07;;;13.55;;
40286;SDS011;25998;46.604;13.610;2022-10-16T14:23:48;14.95;;;13.45;;
40286;SDS011;25998;46.604;13.610;2022-10-16T14:26:59;15.75;;;13.05;;
40286;SDS011;25998;46.604;13.610;2022-10-16T14:30:16;13.95;;;12.55;;
40286;SDS011;25998;46.604;13.610;2022-10-16T14:36:40;15.90;;;13.93;;
40286;SDS011;25998;46.604;13.610;2022-10-16T14:39:52;15.23;;;13.63;;
40286;SDS011;25998;46.604;13.610;2022-10-16T14:43:04;17.90;;;13.10;;
40286;SDS011;25998;46.604;13.610;2022-10-16T14:46:17;16.67;;;13.48;;
40286;SDS011;25998;46.604;13.610;2022-10-16T14:49:30;17.48;;;14.13;;
40286;SDS011;25998;46.604;13.610;2022-10-16T14:52:41;15.45;;;13.80;;
40286;SDS011;25998;46.604;13.610;2022-10-16T14:55:53;16.95;;;12.68;;
40286;SDS011;25998;46.604;13.610;2022-10-16T14:59:04;17.50;;;14.40;;
40286;SDS011;25998;46.604;13.610;2022-10-16T15:02:21;17.02;;;13.05;;
40286;SDS011;25998;46.604;13.610;2022-10-16T15:05:37;20.60;;;13.90;;
40286;SDS011;25998;46.604;13.610;2022-10-16T15:08:48;17.55;;;13.90;;
40286;SDS011;25998;46.604;13.610;2022-10-16T15:11:59;16.40;;;13.27;;
40286;SDS011;25998;46.604;13.610;2022-10-16T15:15:26;16.10;;;14.07;;
40286;SDS011;25998;46.604;13.610;2022-10-16T15:18:43;17.30;;;13.48;;
40286;SDS011;25998;46.604;13.610;2022-10-16T15:21:54;14.55;;;12.98;;
40286;SDS011;25998;46.604;13.610;2022-10-16T15:28:40;15.02;;;12.93;;
40286;SDS011;25998;46.604;13.610;2022-10-16T15:31:51;15.70;;;13.38;;
40286;SDS011;25998;46.604;13.610;2022-10-16T15:35:02;13.80;;;12.23;;
40286;SDS011;25998;46.604;13.610;2022-10-16T15:38:13;15.02;;;11.85;;
40286;SDS011;25998;46.604;13.610;2022-10-16T15:41:25;17.38;;;12.32;;
40286;SDS011;25998;46.604;13.610;2022-10-16T15:44:36;17.42;;;12.93;;
40286;SDS011;25998;46.604;13.610;2022-10-16T15:47:47;15.02;;;12.43;;
40286;SDS011;25998;46.604;13.610;2022-10-16T15:50:58;14.25;;;11.95;;
40286;SDS011;25998;46.604;13.610;2022-10-16T15:54:09;18.05;;;12.68;;
40286;SDS011;25998;46.604;13.610;2022-10-16T15:57:20;15.05;;;12.30;;
40286;SDS011;25998;46.604;13.610;2022-10-16T16:00:31;15.95;;;11.52;;
40286;SDS011;25998;46.604;13.610;2022-10-16T16:03:42;17.63;;;12.57;;
40286;SDS011;25998;46.604;13.610;2022-10-16T16:06:54;13.43;;;11.85;;
40286;SDS011;25998;46.604;13.610;2022-10-16T16:10:06;19.40;;;12.30;;
40286;SDS011;25998;46.604;13.610;2022-10-16T16:13:19;16.17;;;11.85;;
40286;SDS011;25998;46.604;13.610;2022-10-16T16:16:30;16.50;;;12.88;;
40286;SDS011;25998;46.604;13.610;2022-10-16T16:19:43;12.73;;;11.52;;
40286;SDS011;25998;46.604;13.610;2022-10-16T16:22:55;18.90;;;11.95;;
40286;SDS011;25998;46.604;13.610;2022-10-16T16:29:19;15.45;;;12.55;;
40286;SDS011;25998;46.604;13.610;2022-10-16T16:32:30;15.57;;;12.45;;
40286;SDS011;25998;46.604;13.610;2022-10-16T16:35:41;14.80;;;13.05;;
40286;SDS011;25998;46.604;13.610;2022-10-16T16:38:52;15.98;;;12.65;;
40286;SDS011;25998;46.604;13.610;2022-10-16T16:42:03;14.65;;;12.65;;
40286;SDS011;25998;46.604;13.610;2022-10-16T16:45:16;16.40;;;13.70;;
40286;SDS011;25998;46.604;13.610;2022-10-16T16:48:27;14.15;;;12.27;;
40286;SDS011;25998;46.604;13.610;2022-10-16T16:51:38;18.27;;;15.48;;
40286;SDS011;25998;46.604;13.610;2022-10-16T16:54:49;19.27;;;15.80;;
40286;SDS011;25998;46.604;13.610;2022-10-16T16:58:01;21.10;;;16.67;;
40286;SDS011;25998;46.604;13.610;2022-10-16T17:01:13;17.13;;;14.40;;
40286;SDS011;25998;46.604;13.610;2022-10-16T17:04:24;17.60;;;13.07;;
40286;SDS011;25998;46.604;13.610;2022-10-16T17:07:35;20.50;;;13.13;;
40286;SDS011;25998;46.604;13.610;2022-10-16T17:10:50;15.20;;;13.30;;
40286;SDS011;25998;46.604;13.610;2022-10-16T17:14:04;14.57;;;12.95;;
40286;SDS011;25998;46.604;13.610;2022-10-16T17:17:15;14.75;;;13.25;;
40286;SDS011;25998;46.604;13.610;2022-10-16T17:20:26;18.85;;;13.98;;
40286;SDS011;25998;46.604;13.610;2022-10-16T17:23:37;15.88;;;13.40;;
40286;SDS011;25998;46.604;13.610;2022-10-16T17:26:48;16.42;;;13.10;;
40286;SDS011;25998;46.604;13.610;2022-10-16T17:29:59;15.48;;;13.85;;
40286;SDS011;25998;46.604;13.610;2022-10-16T17:33:10;17.20;;;13.82;;
40286;SDS011;25998;46.604;13.610;2022-10-16T17:36:22;18.45;;;14.93;;
40286;SDS011;25998;46.604;13.610;2022-10-16T17:39:33;13.70;;;12.30;;
40286;SDS011;25998;46.604;13.610;2022-10-16T17:42:44;16.95;;;13.85;;
40286;SDS011;25998;46.604;13.610;2022-10-16T17:45:55;16.55;;;13.50;;
40286;SDS011;25998;46.604;13.610;2022-10-16T17:49:06;17.38;;;14.23;;
40286;SDS011;25998;46.604;13.610;2022-10-16T17:52:16;17.52;;;14.98;;
40286;SDS011;25998;46.604;13.610;2022-10-16T17:55:27;16.55;;;14.77;;
40286;SDS011;25998;46.604;13.610;2022-10-16T17:58:38;16.75;;;14.38;;
40286;SDS011;25998;46.604;13.610;2022-10-16T18:01:49;18.13;;;15.02;;
40286;SDS011;25998;46.604;13.610;2022-10-16T18:05:00;16.02;;;14.07;;
40286;SDS011;25998;46.604;13.610;2022-10-16T18:08:11;24.05;;;16.48;;
40286;SDS011;25998;46.604;13.610;2022-10-16T18:11:22;17.55;;;14.88;;
40286;SDS011;25998;46.604;13.610;2022-10-16T18:14:33;17.88;;;15.52;;
40286;SDS011;25998;46.604;13.610;2022-10-16T18:17:44;20.92;;;16.15;;
40286;SDS011;25998;46.604;13.610;2022-10-16T18:20:59;19.00;;;16.55;;
40286;SDS011;25998;46.604;13.610;2022-10-16T18:24:11;19.95;;;16.05;;
40286;SDS011;25998;46.604;13.610;2022-10-16T18:27:22;19.75;;;15.75;;
40286;SDS011;25998;46.604;13.610;2022-10-16T18:30:33;20.75;;;14.85;;
40286;SDS011;25998;46.604;13.610;2022-10-16T18:33:44;17.65;;;15.73;;
40286;SDS011;25998;46.604;13.610;2022-10-16T18:36:59;19.30;;;16.10;;
40286;SDS011;25998;46.604;13.610;2022-10-16T18:40:10;16.60;;;14.90;;
40286;SDS011;25998;46.604;13.610;2022-10-16T18:43:21;17.55;;;14.73;;
40286;SDS011;25998;46.604;13.610;2022-10-16T18:46:32;17.88;;;14.75;;
40286;SDS011;25998;46.604;13.610;2022-10-16T18:49:43;17.75;;;15.50;;
40286;SDS011;25998;46.604;13.610;2022-10-16T18:52:55;19.90;;;15.50;;
40286;SDS011;25998;46.604;13.610;2022-10-16T18:56:06;21.92;;;16.90;;
40286;SDS011;25998;46.604;13.610;2022-10-16T18:59:17;21.65;;;15.05;;
40286;SDS011;25998;46.604;13.610;2022-10-16T19:02:28;22.60;;;15.60;;
40286;SDS011;25998;46.604;13.610;2022-10-16T19:05:39;17.10;;;15.30;;
40286;SDS011;25998;46.604;13.610;2022-10-16T19:08:52;17.27;;;15.52;;
40286;SDS011;25998;46.604;13.610;2022-10-16T19:12:03;16.85;;;15.07;;
40286;SDS011;25998;46.604;13.610;2022-10-16T19:15:14;17.20;;;15.40;;
40286;SDS011;25998;46.604;13.610;2022-10-16T19:18:26;19.67;;;16.25;;
40286;SDS011;25998;46.604;13.610;2022-10-16T19:21:37;20.73;;;16.17;;
40286;SDS011;25998;46.604;13.610;2022-10-16T19:24:52;19.25;;;16.42;;
40286;SDS011;25998;46.604;13.610;2022-10-16T19:28:03;22.20;;;16.00;;
40286;SDS011;25998;46.604;13.610;2022-10-16T19:31:17;19.13;;;16.30;;
40286;SDS011;25998;46.604;13.610;2022-10-16T19:34:30;16.88;;;14.88;;
40286;SDS011;25998;46.604;13.610;2022-10-16T19:37:40;19.23;;;16.15;;
40286;SDS011;25998;46.604;13.610;2022-10-16T19:40:51;18.25;;;15.73;;
40286;SDS011;25998;46.604;13.610;2022-10-16T19:44:03;17.30;;;15.02;;
40286;SDS011;25998;46.604;13.610;2022-10-16T19:47:15;19.98;;;16.42;;
40286;SDS011;25998;46.604;13.610;2022-10-16T19:50:26;18.55;;;16.58;;
40286;SDS011;25998;46.604;13.610;2022-10-16T19:53:36;19.27;;;15.60;;
40286;SDS011;25998;46.604;13.610;2022-10-16T19:56:47;20.13;;;15.93;;
40286;SDS011;25998;46.604;13.610;2022-10-16T19:59:58;17.45;;;15.40;;
40286;SDS011;25998;46.604;13.610;2022-10-16T20:03:09;21.90;;;17.58;;
40286;SDS011;25998;46.604;13.610;2022-10-16T20:06:20;24.15;;;17.77;;
40286;SDS011;25998;46.604;13.610;2022-10-16T20:09:32;21.55;;;17.05;;
40286;SDS011;25998;46.604;13.610;2022-10-16T20:12:44;21.40;;;17.08;;
40286;SDS011;25998;46.604;13.610;2022-10-16T20:15:55;22.17;;;17.70;;
40286;SDS011;25998;46.604;13.610;2022-10-16T20:19:06;23.65;;;16.92;;
40286;SDS011;25998;46.604;13.610;2022-10-16T20:22:17;23.05;;;18.05;;
40286;SDS011;25998;46.604;13.610;2022-10-16T20:25:27;21.98;;;18.52;;
40286;SDS011;25998;46.604;13.610;2022-10-16T20:28:39;25.30;;;19.05;;
40286;SDS011;25998;46.604;13.610;2022-10-16T20:31:52;22.92;;;19.02;;